createdAt,value
2022-11-17T00:02:30.165Z,2.40
2022-11-17T00:05:35.970Z,2.15
2022-11-17T00:08:40.718Z,2.28
2022-11-17T00:12:06.068Z,2.72
2022-11-17T00:15:10.408Z,2.83
2022-11-17T00:18:33.297Z,2.28
2022-11-17T00:21:37.888Z,3.38
2022-11-17T00:24:42.648Z,3.83
2022-11-17T00:27:47.095Z,3.10
2022-11-17T00:31:11.680Z,2.72
2022-11-17T00:34:19.997Z,2.50
2022-11-17T00:37:25.378Z,2.42
2022-11-17T00:40:30.261Z,2.42
2022-11-17T00:43:35.004Z,2.58
2022-11-17T00:46:40.197Z,2.83
2022-11-17T00:49:45.059Z,2.67
2022-11-17T00:52:49.883Z,2.30
2022-11-17T00:55:54.740Z,2.65
2022-11-17T00:58:59.776Z,2.80
2022-11-17T01:02:04.568Z,3.38
2022-11-17T01:05:09.337Z,2.55
2022-11-17T01:08:14.345Z,2.75
2022-11-17T01:11:23.890Z,2.60
2022-11-17T01:14:30.439Z,2.92
2022-11-17T01:17:35.210Z,2.50
2022-11-17T01:20:40.143Z,2.72
2022-11-17T01:23:46.582Z,3.00
2022-11-17T01:26:51.927Z,3.00
2022-11-17T01:29:56.218Z,2.90
2022-11-17T01:33:00.770Z,3.10
2022-11-17T01:36:10.673Z,2.72
2022-11-17T01:39:15.155Z,2.83
2022-11-17T01:42:24.080Z,3.20
2022-11-17T01:45:28.928Z,3.03
2022-11-17T01:48:34.151Z,2.22
2022-11-17T01:51:43.567Z,3.05
2022-11-17T01:54:49.330Z,3.05
2022-11-17T01:58:01.371Z,3.38
2022-11-17T02:01:06.398Z,3.55
2022-11-17T02:04:11.151Z,2.53
2022-11-17T02:07:28.495Z,2.70
2022-11-17T02:10:40.686Z,2.20
2022-11-17T02:13:48.126Z,2.95
2022-11-17T02:16:52.660Z,2.45
2022-11-17T02:20:11.057Z,2.30
2022-11-17T02:24:04.089Z,2.50
2022-11-17T02:27:59.063Z,1.88
2022-11-17T02:34:42.096Z,2.45
2022-11-17T02:38:19.336Z,1.92
2022-11-17T02:41:29.108Z,1.88
2022-11-17T02:44:52.594Z,1.98
2022-11-17T02:48:01.654Z,1.60
2022-11-17T02:51:12.075Z,1.40
2022-11-17T02:54:18.789Z,1.73
2022-11-17T02:57:39.529Z,1.85
2022-11-17T03:01:03.738Z,1.92
2022-11-17T03:04:37.358Z,2.97
2022-11-17T03:08:15.337Z,1.85
2022-11-17T03:11:28.775Z,2.22
2022-11-17T03:15:17.280Z,2.42
2022-11-17T03:18:45.587Z,2.20
2022-11-17T03:21:56.361Z,1.95
2022-11-17T03:25:09.493Z,2.30
2022-11-17T03:28:18.660Z,1.95
2022-11-17T03:31:24.385Z,1.80
2022-11-17T03:34:36.368Z,1.63
2022-11-17T03:37:53.435Z,1.42
2022-11-17T03:41:00.462Z,1.80
2022-11-17T03:44:06.641Z,2.53
2022-11-17T03:47:13.822Z,1.85
2022-11-17T03:50:34.913Z,2.20
2022-11-17T03:53:39.310Z,2.20
2022-11-17T03:57:24.584Z,1.60
2022-11-17T04:00:29.360Z,2.25
2022-11-17T04:03:34.824Z,2.75
2022-11-17T04:06:39.557Z,2.10
2022-11-17T04:09:44.136Z,2.03
2022-11-17T04:13:08.944Z,2.10
2022-11-17T04:16:13.599Z,1.73
2022-11-17T04:19:18.045Z,1.73
2022-11-17T04:22:22.523Z,2.15
2022-11-17T04:25:46.850Z,1.80
2022-11-17T04:28:51.251Z,1.85
2022-11-17T04:31:55.741Z,1.52
2022-11-17T04:35:00.240Z,1.40
2022-11-17T04:38:04.772Z,1.80
2022-11-17T04:41:30.159Z,1.60
2022-11-17T04:44:34.799Z,1.58
2022-11-17T04:47:39.289Z,1.60
2022-11-17T04:50:43.833Z,1.80
2022-11-17T04:53:48.450Z,1.90
2022-11-17T04:56:54.881Z,2.20
2022-11-17T04:59:59.460Z,2.00
2022-11-17T05:03:04.570Z,2.05
2022-11-17T05:06:12.061Z,2.67
2022-11-17T05:09:17.428Z,1.75
2022-11-17T05:12:40.501Z,1.83
2022-11-17T05:16:03.456Z,2.15
2022-11-17T05:19:12.734Z,1.77
2022-11-17T05:22:40.444Z,2.47
2022-11-17T05:25:44.816Z,2.22
2022-11-17T05:28:49.734Z,2.00
2022-11-17T05:31:54.316Z,2.10
2022-11-17T05:34:58.458Z,2.55
2022-11-17T05:38:02.908Z,1.70
2022-11-17T05:41:07.373Z,1.38
2022-11-17T05:44:11.590Z,1.65
2022-11-17T05:47:16.220Z,1.85
2022-11-17T05:50:20.504Z,1.75
2022-11-17T05:53:25.969Z,2.03
2022-11-17T05:56:44.329Z,1.70
2022-11-17T05:59:55.389Z,1.80
2022-11-17T06:03:09.770Z,1.70
2022-11-17T06:12:23.874Z,2.17
2022-11-17T06:15:29.366Z,1.45
2022-11-17T06:18:46.103Z,1.58
2022-11-17T06:22:11.234Z,1.90
2022-11-17T06:25:19.143Z,1.90
2022-11-17T06:28:23.778Z,2.15
2022-11-17T06:31:28.534Z,1.67
2022-11-17T06:34:34.260Z,1.63
2022-11-17T06:37:38.920Z,1.50
2022-11-17T06:40:43.440Z,1.52
2022-11-17T06:43:48.077Z,1.52
2022-11-17T06:46:52.400Z,1.30
2022-11-17T06:49:56.779Z,1.45
2022-11-17T06:53:06.084Z,1.45
2022-11-17T06:56:11.634Z,1.63
2022-11-17T06:59:16.306Z,1.10
2022-11-17T07:02:21.073Z,1.50
2022-11-17T07:05:26.139Z,1.33
2022-11-17T07:08:31.383Z,1.05
2022-11-17T07:11:36.547Z,1.20
2022-11-17T07:14:41.108Z,0.98
2022-11-17T07:17:45.848Z,1.20
2022-11-17T07:20:50.695Z,1.42
2022-11-17T07:23:55.846Z,1.42
2022-11-17T07:27:00.773Z,1.50
2022-11-17T07:30:07.325Z,0.82
2022-11-17T07:33:12.076Z,0.93
2022-11-17T07:36:16.630Z,0.77
2022-11-17T07:39:22.055Z,1.00
2022-11-17T07:42:26.952Z,1.15
2022-11-17T07:45:32.470Z,1.08
2022-11-17T07:48:37.836Z,1.00
2022-11-17T07:51:42.664Z,1.40
2022-11-17T07:54:47.110Z,1.45
2022-11-17T07:57:59.627Z,1.00
2022-11-17T08:01:10.496Z,1.23
2022-11-17T08:04:15.647Z,1.08
2022-11-17T08:07:20.476Z,1.20
2022-11-17T08:10:31.088Z,0.90
2022-11-17T08:13:36.496Z,0.68
2022-11-17T08:16:40.964Z,1.02
2022-11-17T08:19:45.696Z,1.42
2022-11-17T08:22:52.297Z,1.15
2022-11-17T08:25:56.875Z,0.90
2022-11-17T08:29:01.935Z,1.23
2022-11-17T08:32:06.312Z,0.70
2022-11-17T08:35:10.977Z,0.90
2022-11-17T08:38:15.579Z,0.65
2022-11-17T08:41:22.249Z,1.00
2022-11-17T08:44:28.031Z,0.80
2022-11-17T08:47:33.111Z,1.30
2022-11-17T08:50:37.639Z,0.70
2022-11-17T08:53:43.061Z,1.23
2022-11-17T08:56:47.606Z,0.70
2022-11-17T08:59:53.643Z,0.70
2022-11-17T09:02:58.316Z,0.90
2022-11-17T09:06:05.338Z,0.75
2022-11-17T09:09:10.213Z,0.60
2022-11-17T09:12:15.640Z,0.60
2022-11-17T09:15:20.425Z,0.43
2022-11-17T09:18:24.938Z,0.73
2022-11-17T09:21:31.468Z,0.73
2022-11-17T09:24:35.736Z,1.20
2022-11-17T09:27:41.107Z,0.63
2022-11-17T09:30:45.951Z,0.80
2022-11-17T09:33:50.794Z,0.63
2022-11-17T09:36:55.386Z,0.50
2022-11-17T09:40:01.129Z,0.65
2022-11-17T09:43:20.332Z,0.70
2022-11-17T09:46:56.396Z,0.70
2022-11-17T09:50:14.441Z,0.70
2022-11-17T09:53:30.988Z,0.68
2022-11-17T09:56:35.788Z,0.57
2022-11-17T09:59:41.292Z,0.50
2022-11-17T10:02:46.914Z,0.52
2022-11-17T10:05:53.094Z,0.60
2022-11-17T10:09:22.494Z,1.00
2022-11-17T10:12:43.442Z,0.50
2022-11-17T10:15:55.517Z,0.68
2022-11-17T10:19:29.333Z,0.60
2022-11-17T10:22:36.976Z,0.70
2022-11-17T10:25:45.935Z,1.00
2022-11-17T10:29:09.053Z,0.90
2022-11-17T10:32:15.311Z,0.60
2022-11-17T10:35:30.494Z,0.80
2022-11-17T10:38:35.316Z,0.73
2022-11-17T10:41:45.237Z,0.90
2022-11-17T10:44:57.787Z,0.70
2022-11-17T10:48:33.339Z,0.80
2022-11-17T10:51:37.663Z,0.60
2022-11-17T10:54:43.031Z,0.50
2022-11-17T10:58:19.291Z,0.80
2022-11-17T11:01:35.199Z,0.70
2022-11-17T11:04:39.891Z,0.55
2022-11-17T11:07:44.632Z,0.60
2022-11-17T11:10:53.239Z,0.60
2022-11-17T11:14:12.027Z,0.70
2022-11-17T11:17:18.401Z,0.80
2022-11-17T11:20:42.842Z,0.70
2022-11-17T11:24:26.080Z,0.70
2022-11-17T11:27:55.375Z,0.90
2022-11-17T11:31:35.727Z,0.68
2022-11-17T11:34:49.336Z,0.60
2022-11-17T11:38:13.991Z,0.80
2022-11-17T11:41:42.285Z,0.68
2022-11-17T11:45:19.023Z,0.80
2022-11-17T11:48:32.318Z,0.50
2022-11-17T11:51:37.972Z,1.33
2022-11-17T11:54:59.241Z,0.70
2022-11-17T11:58:24.699Z,0.70
2022-11-17T12:01:47.957Z,0.63
2022-11-17T12:05:26.736Z,0.50
2022-11-17T12:08:46.246Z,0.70
2022-11-17T12:12:01.629Z,1.00
2022-11-17T12:15:29.522Z,0.73
2022-11-17T12:18:34.309Z,0.68
2022-11-17T12:21:38.962Z,0.77
2022-11-17T12:24:44.285Z,0.70
2022-11-17T12:27:53.830Z,0.80
2022-11-17T12:31:24.501Z,0.82
2022-11-17T12:34:38.339Z,0.70
2022-11-17T12:44:38.243Z,0.68
2022-11-17T12:47:54.762Z,0.70
2022-11-17T12:51:35.510Z,0.90
2022-11-17T12:55:01.372Z,0.70
2022-11-17T12:58:20.847Z,0.90
2022-11-17T13:01:35.977Z,0.88
2022-11-17T13:04:51.068Z,0.60
2022-11-17T13:08:31.694Z,0.70
2022-11-17T13:11:36.307Z,0.70
2022-11-17T13:14:58.947Z,0.68
2022-11-17T13:18:11.805Z,0.70
2022-11-17T13:21:32.315Z,0.73
2022-11-17T13:24:39.455Z,0.70
2022-11-17T13:27:49.250Z,0.82
2022-11-17T13:31:00.888Z,0.77
2022-11-17T13:34:21.256Z,0.52
2022-11-17T13:37:28.761Z,0.55
2022-11-17T13:40:35.661Z,0.80
2022-11-17T13:43:41.320Z,0.60
2022-11-17T13:46:46.353Z,0.60
2022-11-17T13:49:51.283Z,0.52
2022-11-17T13:53:10.357Z,0.52
2022-11-17T13:56:36.779Z,0.55
2022-11-17T13:59:41.160Z,0.70
2022-11-17T14:02:57.972Z,0.63
2022-11-17T14:06:09.931Z,0.70
2022-11-17T14:09:18.854Z,0.60
2022-11-17T14:12:23.519Z,0.70
2022-11-17T14:15:34.635Z,0.90
2022-11-17T14:18:39.202Z,0.73
2022-11-17T14:22:03.782Z,0.73
2022-11-17T14:25:09.685Z,0.60
2022-11-17T14:28:22.844Z,0.70
2022-11-17T14:31:51.997Z,0.50
2022-11-17T14:34:56.703Z,0.73
2022-11-17T14:38:01.992Z,0.90
2022-11-17T14:41:07.041Z,0.70
2022-11-17T14:44:11.856Z,0.60
2022-11-17T14:47:16.505Z,0.60
2022-11-17T14:50:21.165Z,0.80
2022-11-17T14:53:26.614Z,0.70
2022-11-17T14:56:31.395Z,0.63
2022-11-17T14:59:36.021Z,0.70
2022-11-17T15:02:41.164Z,0.63
2022-11-17T15:05:46.282Z,0.57
2022-11-17T15:09:00.156Z,0.70
2022-11-17T15:12:04.942Z,0.70
2022-11-17T15:15:10.327Z,0.70
2022-11-17T15:18:14.799Z,0.70
2022-11-17T15:21:19.609Z,0.57
2022-11-17T15:24:24.349Z,0.70
2022-11-17T15:27:30.104Z,0.70
2022-11-17T15:30:37.246Z,0.80
2022-11-17T15:33:43.367Z,0.70
2022-11-17T15:36:48.966Z,0.80
2022-11-17T15:39:53.744Z,0.50
2022-11-17T15:42:58.387Z,0.80
2022-11-17T15:46:07.165Z,0.70
2022-11-17T15:49:11.782Z,0.85
2022-11-17T15:52:19.578Z,0.70
2022-11-17T15:55:35.469Z,0.80
2022-11-17T15:58:42.138Z,0.80
2022-11-17T16:01:46.824Z,0.80
2022-11-17T16:04:51.242Z,0.82
2022-11-17T16:07:55.867Z,0.93
2022-11-17T16:11:01.231Z,0.80
2022-11-17T16:14:06.473Z,0.73
2022-11-17T16:17:11.142Z,0.70
2022-11-17T16:20:15.865Z,0.82
2022-11-17T16:23:20.553Z,0.68
2022-11-17T16:26:27.175Z,1.00
2022-11-17T16:29:32.014Z,0.95
2022-11-17T16:32:36.360Z,0.80
2022-11-17T16:35:41.716Z,0.70
2022-11-17T16:39:00.771Z,0.70
2022-11-17T16:42:06.376Z,0.90
2022-11-17T16:45:11.108Z,0.60
2022-11-17T16:48:16.005Z,0.80
2022-11-17T16:51:22.138Z,0.75
2022-11-17T16:54:26.712Z,0.95
2022-11-17T16:57:31.457Z,0.88
2022-11-17T17:00:37.055Z,0.90
2022-11-17T17:03:43.069Z,1.30
2022-11-17T17:06:47.889Z,0.77
2022-11-17T17:09:52.895Z,0.85
2022-11-17T17:12:57.430Z,0.85
2022-11-17T17:16:05.025Z,0.80
2022-11-17T17:19:11.778Z,0.73
2022-11-17T17:22:16.275Z,0.73
2022-11-17T17:25:20.800Z,1.10
2022-11-17T17:28:28.727Z,1.10
2022-11-17T17:31:42.349Z,1.15
2022-11-17T17:34:47.008Z,0.80
2022-11-17T17:37:51.727Z,1.00
2022-11-17T17:40:56.722Z,1.17
2022-11-17T17:44:05.722Z,1.10
2022-11-17T17:47:10.389Z,0.80
2022-11-17T17:50:15.997Z,0.70
2022-11-17T17:53:20.533Z,0.85
2022-11-17T17:56:25.594Z,0.93
2022-11-17T17:59:30.051Z,0.80
2022-11-17T18:02:34.815Z,0.68
2022-11-17T18:05:39.574Z,0.73
2022-11-17T18:08:45.929Z,0.80
2022-11-17T18:11:51.301Z,1.02
2022-11-17T18:14:56.184Z,0.90
2022-11-17T18:18:01.018Z,1.10
2022-11-17T18:21:26.029Z,1.00
2022-11-17T18:24:30.730Z,1.50
2022-11-17T18:27:35.510Z,1.50
2022-11-17T18:30:40.081Z,1.42
2022-11-17T18:33:45.383Z,0.90
2022-11-17T18:36:52.242Z,0.90
2022-11-17T18:39:56.910Z,1.20
2022-11-17T18:43:01.613Z,1.30
2022-11-17T18:46:21.602Z,1.50
2022-11-17T18:49:26.361Z,1.10
2022-11-17T18:52:31.634Z,3.33
2022-11-17T18:55:36.785Z,3.63
2022-11-17T18:58:43.342Z,2.63
2022-11-17T19:01:48.389Z,2.60
2022-11-17T19:04:53.038Z,2.13
2022-11-17T19:07:57.543Z,1.48
2022-11-17T19:11:06.217Z,1.30
2022-11-17T19:14:10.850Z,1.23
2022-11-17T19:17:15.493Z,1.25
2022-11-17T19:20:22.297Z,1.00
2022-11-17T19:23:26.970Z,0.80
2022-11-17T19:26:34.929Z,0.98
2022-11-17T19:29:41.433Z,1.05
2022-11-17T19:32:45.978Z,1.20
2022-11-17T19:35:50.780Z,1.10
2022-11-17T19:38:56.995Z,1.10
2022-11-17T19:42:01.656Z,0.88
2022-11-17T19:45:07.038Z,0.90
2022-11-17T19:48:12.001Z,0.95
2022-11-17T19:51:29.159Z,1.13
2022-11-17T19:54:33.497Z,1.17
2022-11-17T19:57:38.107Z,0.90
2022-11-17T20:00:45.252Z,0.75
2022-11-17T20:03:50.740Z,1.30
2022-11-17T20:06:55.412Z,1.05
2022-11-17T20:10:00.507Z,1.00
2022-11-17T20:13:05.208Z,0.90
2022-11-17T20:16:16.182Z,1.20
2022-11-17T20:19:20.791Z,1.17
2022-11-17T20:22:25.228Z,1.20
2022-11-17T20:25:30.656Z,1.52
2022-11-17T20:28:36.868Z,1.25
2022-11-17T20:31:41.507Z,1.55
2022-11-17T20:34:46.263Z,1.92
2022-11-17T20:37:51.159Z,1.60
2022-11-17T20:40:58.176Z,1.70
2022-11-17T20:44:03.635Z,1.73
2022-11-17T20:47:08.275Z,1.63
2022-11-17T20:50:12.964Z,1.50
2022-11-17T20:53:17.694Z,1.40
2022-11-17T20:56:22.778Z,1.50
2022-11-17T20:59:27.416Z,1.90
2022-11-17T21:02:32.090Z,1.50
2022-11-17T21:05:36.698Z,1.58
2022-11-17T21:08:43.477Z,2.42
2022-11-17T21:11:56.875Z,1.50
2022-11-17T21:15:01.680Z,1.70
2022-11-17T21:18:24.286Z,1.50
2022-11-17T21:21:29.561Z,1.85
2022-11-17T21:24:34.210Z,1.35
2022-11-17T21:27:39.048Z,1.40
2022-11-17T21:30:44.077Z,1.42
2022-11-17T21:33:54.095Z,1.20
2022-11-17T21:36:59.170Z,1.20
2022-11-17T21:40:04.555Z,1.27
2022-11-17T21:43:08.930Z,1.05
2022-11-17T21:46:19.420Z,0.90
2022-11-17T21:49:24.051Z,1.17
2022-11-17T21:52:28.782Z,1.10
2022-11-17T21:55:33.218Z,1.00
2022-11-17T21:58:38.241Z,1.15
2022-11-17T22:01:43.041Z,1.17
2022-11-17T22:04:47.784Z,0.98
2022-11-17T22:07:52.453Z,0.90
2022-11-17T22:10:56.843Z,1.02
2022-11-17T22:14:12.566Z,1.05
2022-11-17T22:17:18.122Z,1.05
2022-11-17T22:20:22.540Z,1.00
2022-11-17T22:23:29.054Z,1.00
2022-11-17T22:26:35.924Z,1.30
2022-11-17T22:29:40.186Z,1.08
2022-11-17T22:32:45.539Z,1.02
2022-11-17T22:35:52.057Z,0.90
2022-11-17T22:38:56.733Z,0.90
2022-11-17T22:42:01.114Z,1.10
2022-11-17T22:45:05.934Z,1.00
2022-11-17T22:48:10.603Z,1.42
2022-11-17T22:51:34.878Z,0.88
2022-11-17T22:54:39.461Z,1.20
2022-11-17T22:57:44.174Z,1.20
2022-11-17T23:00:48.567Z,0.98
2022-11-17T23:03:52.970Z,1.10
2022-11-17T23:06:57.729Z,1.02
2022-11-17T23:10:02.417Z,0.85
2022-11-17T23:13:07.104Z,0.90
2022-11-17T23:16:11.754Z,1.05
2022-11-17T23:19:16.946Z,0.88
2022-11-17T23:22:22.107Z,1.10
2022-11-17T23:25:26.684Z,0.95
2022-11-17T23:28:31.812Z,1.10
2022-11-17T23:31:36.773Z,0.90
2022-11-17T23:34:41.442Z,1.17
2022-11-17T23:37:46.308Z,1.10
2022-11-17T23:40:51.705Z,0.93
2022-11-17T23:44:13.059Z,1.38
2022-11-17T23:47:17.945Z,1.00
2022-11-17T23:50:22.510Z,1.00
2022-11-17T23:53:27.267Z,1.23
2022-11-17T23:56:33.933Z,1.13
2022-11-17T23:59:38.566Z,0.98
